sensor_id;sensor_type;location;lat;lon;timestamp;pressure;altitude;pressure_sealevel;temperature;humidity
77587;BME280;66744;49.716;17.158;2023-04-16T00:01:36;98778.06;;;8.06;87.39
77587;BME280;66744;49.716;17.158;2023-04-16T00:04:38;98781.22;;;8.04;86.91
77587;BME280;66744;49.716;17.158;2023-04-16T00:07:39;98789.06;;;8.02;86.90
77587;BME280;66744;49.716;17.158;2023-04-16T00:10:41;98789.63;;;7.94;86.21
77587;BME280;66744;49.716;17.158;2023-04-16T00:13:42;98793.00;;;7.81;86.66
77587;BME280;66744;49.716;17.158;2023-04-16T00:16:43;98792.75;;;7.76;87.66
77587;BME280;66744;49.716;17.158;2023-04-16T00:19:44;98797.31;;;7.82;87.49
77587;BME280;66744;49.716;17.158;2023-04-16T00:22:45;98794.91;;;7.84;87.92
77587;BME280;66744;49.716;17.158;2023-04-16T00:25:47;98795.19;;;7.90;87.75
77587;BME280;66744;49.716;17.158;2023-04-16T00:28:48;98799.06;;;7.93;87.58
77587;BME280;66744;49.716;17.158;2023-04-16T00:31:49;98801.69;;;7.96;87.92
77587;BME280;66744;49.716;17.158;2023-04-16T00:34:51;98805.22;;;7.97;87.93
77587;BME280;66744;49.716;17.158;2023-04-16T00:37:53;98805.56;;;7.99;87.10
77587;BME280;66744;49.716;17.158;2023-04-16T00:40:54;98804.78;;;7.98;87.32
77587;BME280;66744;49.716;17.158;2023-04-16T00:43:58;98808.31;;;7.99;87.66
77587;BME280;66744;49.716;17.158;2023-04-16T00:46:59;98808.22;;;8.02;87.75
77587;BME280;66744;49.716;17.158;2023-04-16T00:50:02;98803.50;;;8.03;87.66
77587;BME280;66744;49.716;17.158;2023-04-16T00:53:05;98809.69;;;8.07;87.60
77587;BME280;66744;49.716;17.158;2023-04-16T00:56:06;98805.00;;;8.07;87.77
77587;BME280;66744;49.716;17.158;2023-04-16T00:59:07;98808.13;;;8.06;87.34
77587;BME280;66744;49.716;17.158;2023-04-16T01:02:09;98818.25;;;8.09;87.14
77587;BME280;66744;49.716;17.158;2023-04-16T01:05:11;98824.41;;;8.13;87.77
77587;BME280;66744;49.716;17.158;2023-04-16T01:08:19;98823.50;;;8.19;88.10
77587;BME280;66744;49.716;17.158;2023-04-16T01:11:20;98823.84;;;8.21;87.75
77587;BME280;66744;49.716;17.158;2023-04-16T01:14:22;98823.06;;;8.21;87.24
77587;BME280;66744;49.716;17.158;2023-04-16T01:17:24;98829.38;;;8.18;86.83
77587;BME280;66744;49.716;17.158;2023-04-16T01:20:25;98830.22;;;8.15;87.45
77587;BME280;66744;49.716;17.158;2023-04-16T01:23:27;98829.81;;;8.16;87.48
77587;BME280;66744;49.716;17.158;2023-04-16T01:26:28;98823.91;;;8.18;87.36
77587;BME280;66744;49.716;17.158;2023-04-16T01:29:29;98830.94;;;8.19;86.91
77587;BME280;66744;49.716;17.158;2023-04-16T01:32:32;98829.44;;;8.14;87.04
77587;BME280;66744;49.716;17.158;2023-04-16T01:35:33;98831.78;;;8.16;87.24
77587;BME280;66744;49.716;17.158;2023-04-16T01:38:34;98839.22;;;8.15;87.50
77587;BME280;66744;49.716;17.158;2023-04-16T01:41:36;98835.50;;;8.06;87.47
77587;BME280;66744;49.716;17.158;2023-04-16T01:44:37;98823.44;;;8.03;87.86
77587;BME280;66744;49.716;17.158;2023-04-16T01:47:39;98837.13;;;8.03;87.64
77587;BME280;66744;49.716;17.158;2023-04-16T01:50:40;98827.78;;;8.01;87.20
77587;BME280;66744;49.716;17.158;2023-04-16T01:53:41;98821.13;;;8.02;88.03
77587;BME280;66744;49.716;17.158;2023-04-16T01:56:43;98834.78;;;8.02;87.50
77587;BME280;66744;49.716;17.158;2023-04-16T01:59:44;98838.75;;;8.01;87.74
77587;BME280;66744;49.716;17.158;2023-04-16T02:02:45;98845.81;;;7.98;87.36
77587;BME280;66744;49.716;17.158;2023-04-16T02:05:52;98844.53;;;8.03;86.96
77587;BME280;66744;49.716;17.158;2023-04-16T02:08:53;98850.09;;;7.99;86.70
77587;BME280;66744;49.716;17.158;2023-04-16T02:11:54;98855.66;;;7.96;86.70
77587;BME280;66744;49.716;17.158;2023-04-16T02:14:55;98850.31;;;7.89;86.53
77587;BME280;66744;49.716;17.158;2023-04-16T02:17:59;98859.47;;;7.78;86.50
77587;BME280;66744;49.716;17.158;2023-04-16T02:21:01;98855.41;;;7.67;87.41
77587;BME280;66744;49.716;17.158;2023-04-16T02:24:02;98862.94;;;7.63;88.15
77587;BME280;66744;49.716;17.158;2023-04-16T02:27:05;98864.66;;;7.53;87.97
77587;BME280;66744;49.716;17.158;2023-04-16T02:30:06;98866.28;;;7.51;88.63
77587;BME280;66744;49.716;17.158;2023-04-16T02:33:10;98872.84;;;7.53;88.46
77587;BME280;66744;49.716;17.158;2023-04-16T02:36:14;98872.44;;;7.55;88.89
77587;BME280;66744;49.716;17.158;2023-04-16T02:39:15;98870.06;;;7.57;89.02
77587;BME280;66744;49.716;17.158;2023-04-16T02:42:16;98871.19;;;7.59;88.67
77587;BME280;66744;49.716;17.158;2023-04-16T02:45:18;98871.59;;;7.58;88.51
77587;BME280;66744;49.716;17.158;2023-04-16T02:48:19;98868.56;;;7.52;87.01
77587;BME280;66744;49.716;17.158;2023-04-16T02:51:21;98878.03;;;7.48;88.38
77587;BME280;66744;49.716;17.158;2023-04-16T02:54:22;98881.59;;;7.45;87.55
77587;BME280;66744;49.716;17.158;2023-04-16T02:57:23;98876.19;;;7.41;87.76
77587;BME280;66744;49.716;17.158;2023-04-16T03:00:24;98885.00;;;7.29;86.27
77587;BME280;66744;49.716;17.158;2023-04-16T03:03:26;98877.69;;;7.22;87.62
77587;BME280;66744;49.716;17.158;2023-04-16T03:06:27;98884.34;;;7.21;87.00
77587;BME280;66744;49.716;17.158;2023-04-16T03:09:28;98885.59;;;7.17;88.51
77587;BME280;66744;49.716;17.158;2023-04-16T03:12:29;98887.53;;;7.16;87.71
77587;BME280;66744;49.716;17.158;2023-04-16T03:15:31;98888.38;;;7.13;87.38
77587;BME280;66744;49.716;17.158;2023-04-16T03:18:32;98894.59;;;7.14;87.78
77587;BME280;66744;49.716;17.158;2023-04-16T03:21:33;98899.03;;;7.04;86.89
77587;BME280;66744;49.716;17.158;2023-04-16T03:24:34;98899.56;;;6.96;86.59
77587;BME280;66744;49.716;17.158;2023-04-16T03:27:35;98892.25;;;6.89;89.14
77587;BME280;66744;49.716;17.158;2023-04-16T03:30:36;98900.81;;;6.91;87.36
77587;BME280;66744;49.716;17.158;2023-04-16T03:33:39;98911.75;;;6.91;87.13
77587;BME280;66744;49.716;17.158;2023-04-16T03:36:41;98914.84;;;6.93;88.08
77587;BME280;66744;49.716;17.158;2023-04-16T03:39:42;98930.03;;;6.94;88.33
77587;BME280;66744;49.716;17.158;2023-04-16T03:42:45;98927.34;;;6.91;88.78
77587;BME280;66744;49.716;17.158;2023-04-16T03:45:46;98931.69;;;6.88;87.34
77587;BME280;66744;49.716;17.158;2023-04-16T03:48:47;98938.78;;;6.82;86.67
77587;BME280;66744;49.716;17.158;2023-04-16T03:51:49;98933.19;;;6.62;86.83
77587;BME280;66744;49.716;17.158;2023-04-16T03:54:51;98936.44;;;6.54;88.75
77587;BME280;66744;49.716;17.158;2023-04-16T03:58:00;98932.53;;;6.55;87.28
77587;BME280;66744;49.716;17.158;2023-04-16T04:01:03;98942.69;;;6.54;88.25
77587;BME280;66744;49.716;17.158;2023-04-16T04:04:05;98948.13;;;6.54;88.20
77587;BME280;66744;49.716;17.158;2023-04-16T04:07:06;98952.03;;;6.53;87.19
77587;BME280;66744;49.716;17.158;2023-04-16T04:10:08;98963.03;;;6.50;88.71
77587;BME280;66744;49.716;17.158;2023-04-16T04:13:13;98964.53;;;6.51;88.05
77587;BME280;66744;49.716;17.158;2023-04-16T04:16:14;98971.13;;;6.53;88.63
77587;BME280;66744;49.716;17.158;2023-04-16T04:19:17;98974.66;;;6.54;88.40
77587;BME280;66744;49.716;17.158;2023-04-16T04:22:18;98982.47;;;6.52;87.42
77587;BME280;66744;49.716;17.158;2023-04-16T04:25:20;98980.09;;;6.54;88.93
77587;BME280;66744;49.716;17.158;2023-04-16T04:28:21;98985.16;;;6.55;87.11
77587;BME280;66744;49.716;17.158;2023-04-16T04:31:24;98980.81;;;6.61;88.25
77587;BME280;66744;49.716;17.158;2023-04-16T04:34:25;98979.94;;;6.68;88.79
77587;BME280;66744;49.716;17.158;2023-04-16T04:37:30;98980.63;;;6.76;88.09
77587;BME280;66744;49.716;17.158;2023-04-16T04:40:31;98986.44;;;6.78;87.06
77587;BME280;66744;49.716;17.158;2023-04-16T04:43:32;98991.88;;;6.78;87.66
77587;BME280;66744;49.716;17.158;2023-04-16T04:46:34;98995.41;;;6.78;87.64
77587;BME280;66744;49.716;17.158;2023-04-16T04:49:36;99002.69;;;6.88;88.21
77587;BME280;66744;49.716;17.158;2023-04-16T04:52:37;99006.03;;;6.99;88.45
77587;BME280;66744;49.716;17.158;2023-04-16T04:55:39;99000.41;;;7.10;88.26
77587;BME280;66744;49.716;17.158;2023-04-16T04:58:40;98999.94;;;7.18;88.62
77587;BME280;66744;49.716;17.158;2023-04-16T05:01:42;99005.22;;;7.29;89.68
77587;BME280;66744;49.716;17.158;2023-04-16T05:04:43;99007.03;;;7.39;88.94
77587;BME280;66744;49.716;17.158;2023-04-16T05:07:44;99013.16;;;7.47;87.87
77587;BME280;66744;49.716;17.158;2023-04-16T05:10:45;99018.44;;;7.57;87.94
77587;BME280;66744;49.716;17.158;2023-04-16T05:13:47;99016.03;;;7.63;87.73
77587;BME280;66744;49.716;17.158;2023-04-16T05:16:48;99026.00;;;7.73;87.67
77587;BME280;66744;49.716;17.158;2023-04-16T05:19:49;99030.81;;;7.89;87.87
77587;BME280;66744;49.716;17.158;2023-04-16T05:22:52;99028.59;;;8.03;87.81
77587;BME280;66744;49.716;17.158;2023-04-16T05:25:55;99033.19;;;8.10;87.51
77587;BME280;66744;49.716;17.158;2023-04-16T05:28:56;99034.72;;;8.11;87.37
77587;BME280;66744;49.716;17.158;2023-04-16T05:31:58;99030.78;;;8.12;87.39
77587;BME280;66744;49.716;17.158;2023-04-16T05:35:01;99035.94;;;8.10;86.50
77587;BME280;66744;49.716;17.158;2023-04-16T05:38:03;99032.75;;;8.11;87.91
77587;BME280;66744;49.716;17.158;2023-04-16T05:41:06;99034.88;;;8.23;87.26
77587;BME280;66744;49.716;17.158;2023-04-16T05:44:15;99038.38;;;8.27;86.98
77587;BME280;66744;49.716;17.158;2023-04-16T05:47:17;99038.59;;;8.36;86.60
77587;BME280;66744;49.716;17.158;2023-04-16T05:50:18;99054.03;;;8.47;86.38
77587;BME280;66744;49.716;17.158;2023-04-16T05:53:20;99052.63;;;8.58;85.87
77587;BME280;66744;49.716;17.158;2023-04-16T05:56:22;99051.94;;;8.74;86.54
77587;BME280;66744;49.716;17.158;2023-04-16T05:59:23;99052.91;;;8.83;84.96
77587;BME280;66744;49.716;17.158;2023-04-16T06:02:24;99057.25;;;9.01;85.10
77587;BME280;66744;49.716;17.158;2023-04-16T06:05:29;99055.91;;;9.09;85.59
77587;BME280;66744;49.716;17.158;2023-04-16T06:08:37;99053.66;;;9.23;84.34
77587;BME280;66744;49.716;17.158;2023-04-16T06:11:40;99055.25;;;9.21;84.31
77587;BME280;66744;49.716;17.158;2023-04-16T06:14:45;99049.78;;;9.21;84.98
77587;BME280;66744;49.716;17.158;2023-04-16T06:17:49;99071.78;;;9.17;84.60
77587;BME280;66744;49.716;17.158;2023-04-16T06:20:55;99070.94;;;9.20;83.89
77587;BME280;66744;49.716;17.158;2023-04-16T06:24:01;99074.03;;;9.22;84.59
77587;BME280;66744;49.716;17.158;2023-04-16T06:27:03;99080.03;;;9.33;84.16
77587;BME280;66744;49.716;17.158;2023-04-16T06:30:09;99072.19;;;9.52;84.24
77587;BME280;66744;49.716;17.158;2023-04-16T06:33:13;99083.94;;;9.68;83.76
77587;BME280;66744;49.716;17.158;2023-04-16T06:36:17;99086.19;;;9.73;83.08
77587;BME280;66744;49.716;17.158;2023-04-16T06:39:19;99079.66;;;9.83;82.28
77587;BME280;66744;49.716;17.158;2023-04-16T06:42:22;99082.94;;;10.11;81.55
77587;BME280;66744;49.716;17.158;2023-04-16T06:45:24;99078.63;;;10.42;81.65
77587;BME280;66744;49.716;17.158;2023-04-16T06:48:26;99071.81;;;10.63;82.33
77587;BME280;66744;49.716;17.158;2023-04-16T06:51:29;99074.56;;;10.63;81.74
77587;BME280;66744;49.716;17.158;2023-04-16T06:54:36;99083.16;;;10.48;80.34
77587;BME280;66744;49.716;17.158;2023-04-16T06:57:37;99089.94;;;10.44;79.12
77587;BME280;66744;49.716;17.158;2023-04-16T07:00:44;99095.28;;;10.51;80.73
77587;BME280;66744;49.716;17.158;2023-04-16T07:03:45;99099.91;;;10.54;80.92
77587;BME280;66744;49.716;17.158;2023-04-16T07:06:52;99097.44;;;10.72;79.26
77587;BME280;66744;49.716;17.158;2023-04-16T07:09:53;99098.34;;;10.82;80.28
77587;BME280;66744;49.716;17.158;2023-04-16T07:12:57;99102.25;;;10.68;78.23
77587;BME280;66744;49.716;17.158;2023-04-16T07:15:58;99101.91;;;10.66;79.98
77587;BME280;66744;49.716;17.158;2023-04-16T07:19:00;99102.09;;;10.88;80.52
77587;BME280;66744;49.716;17.158;2023-04-16T07:22:02;99103.28;;;11.15;80.03
77587;BME280;66744;49.716;17.158;2023-04-16T07:25:04;99112.56;;;11.47;78.23
77587;BME280;66744;49.716;17.158;2023-04-16T07:28:05;99111.03;;;11.58;78.33
77587;BME280;66744;49.716;17.158;2023-04-16T07:31:07;99123.28;;;11.70;76.58
77587;BME280;66744;49.716;17.158;2023-04-16T07:34:10;99121.72;;;11.69;78.02
77587;BME280;66744;49.716;17.158;2023-04-16T07:37:11;99122.16;;;11.67;76.28
77587;BME280;66744;49.716;17.158;2023-04-16T07:40:13;99128.91;;;11.79;74.21
77587;BME280;66744;49.716;17.158;2023-04-16T07:43:14;99125.63;;;11.84;75.66
77587;BME280;66744;49.716;17.158;2023-04-16T07:46:16;99124.94;;;11.93;76.30
77587;BME280;66744;49.716;17.158;2023-04-16T07:49:20;99124.06;;;12.08;75.91
77587;BME280;66744;49.716;17.158;2023-04-16T07:52:21;99128.31;;;12.35;74.79
77587;BME280;66744;49.716;17.158;2023-04-16T07:55:23;99121.50;;;12.61;72.71
77587;BME280;66744;49.716;17.158;2023-04-16T07:58:24;99129.66;;;12.64;71.60
77587;BME280;66744;49.716;17.158;2023-04-16T08:01:26;99130.56;;;12.61;71.78
77587;BME280;66744;49.716;17.158;2023-04-16T08:04:27;99119.88;;;12.51;69.63
77587;BME280;66744;49.716;17.158;2023-04-16T08:07:28;99132.78;;;12.41;71.76
77587;BME280;66744;49.716;17.158;2023-04-16T08:10:29;99129.28;;;12.41;71.99
77587;BME280;66744;49.716;17.158;2023-04-16T08:13:30;99130.28;;;12.34;71.68
77587;BME280;66744;49.716;17.158;2023-04-16T08:16:32;99131.50;;;12.33;70.08
77587;BME280;66744;49.716;17.158;2023-04-16T08:19:36;99126.56;;;12.28;67.90
77587;BME280;66744;49.716;17.158;2023-04-16T08:22:44;99127.22;;;12.19;69.85
77587;BME280;66744;49.716;17.158;2023-04-16T08:25:46;99125.78;;;12.15;67.82
77587;BME280;66744;49.716;17.158;2023-04-16T08:28:49;99125.38;;;12.16;68.23
77587;BME280;66744;49.716;17.158;2023-04-16T08:31:53;99135.34;;;12.36;69.69
77587;BME280;66744;49.716;17.158;2023-04-16T08:34:55;99140.41;;;12.37;67.12
77587;BME280;66744;49.716;17.158;2023-04-16T08:37:57;99141.06;;;12.41;68.00
77587;BME280;66744;49.716;17.158;2023-04-16T08:41:05;99141.28;;;12.47;67.42
77587;BME280;66744;49.716;17.158;2023-04-16T08:44:08;99149.97;;;12.45;68.40
77587;BME280;66744;49.716;17.158;2023-04-16T08:47:11;99150.97;;;12.39;68.06
77587;BME280;66744;49.716;17.158;2023-04-16T08:50:22;99143.75;;;12.32;68.70
77587;BME280;66744;49.716;17.158;2023-04-16T08:53:31;99148.13;;;12.30;67.74
77587;BME280;66744;49.716;17.158;2023-04-16T08:56:36;99142.28;;;12.40;67.62
77587;BME280;66744;49.716;17.158;2023-04-16T08:59:37;99146.53;;;12.54;66.29
77587;BME280;66744;49.716;17.158;2023-04-16T09:02:41;99148.56;;;12.75;67.92
77587;BME280;66744;49.716;17.158;2023-04-16T09:05:42;99144.59;;;13.10;67.99
77587;BME280;66744;49.716;17.158;2023-04-16T09:08:45;99151.72;;;13.20;62.54
77587;BME280;66744;49.716;17.158;2023-04-16T09:11:52;99155.31;;;13.08;64.68
77587;BME280;66744;49.716;17.158;2023-04-16T09:14:54;99149.41;;;13.19;63.99
77587;BME280;66744;49.716;17.158;2023-04-16T09:17:56;99148.84;;;13.55;65.70
77587;BME280;66744;49.716;17.158;2023-04-16T09:20:58;99155.03;;;13.89;62.76
77587;BME280;66744;49.716;17.158;2023-04-16T09:24:00;99166.28;;;14.04;62.23
77587;BME280;66744;49.716;17.158;2023-04-16T09:27:02;99164.31;;;14.14;62.17
77587;BME280;66744;49.716;17.158;2023-04-16T09:30:19;99169.00;;;14.35;58.21
77587;BME280;66744;49.716;17.158;2023-04-16T09:33:23;99168.31;;;14.71;59.19
77587;BME280;66744;49.716;17.158;2023-04-16T09:36:25;99168.16;;;14.83;57.92
77587;BME280;66744;49.716;17.158;2023-04-16T09:39:26;99174.47;;;14.84;58.80
77587;BME280;66744;49.716;17.158;2023-04-16T09:42:29;99167.53;;;14.88;56.51
77587;BME280;66744;49.716;17.158;2023-04-16T09:45:31;99172.63;;;14.90;57.65
77587;BME280;66744;49.716;17.158;2023-04-16T09:48:33;99170.47;;;14.94;58.56
77587;BME280;66744;49.716;17.158;2023-04-16T09:51:41;99167.09;;;14.99;57.05
77587;BME280;66744;49.716;17.158;2023-04-16T09:54:51;99173.41;;;14.90;56.05
77587;BME280;66744;49.716;17.158;2023-04-16T09:57:59;99162.47;;;15.23;55.43
77587;BME280;66744;49.716;17.158;2023-04-16T10:01:01;99170.72;;;15.60;58.68
77587;BME280;66744;49.716;17.158;2023-04-16T10:04:05;99169.38;;;15.55;54.37
77587;BME280;66744;49.716;17.158;2023-04-16T10:07:06;99179.38;;;15.34;55.80
77587;BME280;66744;49.716;17.158;2023-04-16T10:10:09;99178.91;;;15.27;54.03
77587;BME280;66744;49.716;17.158;2023-04-16T10:13:10;99168.75;;;15.15;56.50
77587;BME280;66744;49.716;17.158;2023-04-16T10:16:12;99172.00;;;14.95;53.82
77587;BME280;66744;49.716;17.158;2023-04-16T10:19:14;99170.00;;;14.86;56.02
77587;BME280;66744;49.716;17.158;2023-04-16T10:22:15;99160.31;;;14.91;58.15
77587;BME280;66744;49.716;17.158;2023-04-16T10:25:20;99160.16;;;15.03;59.93
77587;BME280;66744;49.716;17.158;2023-04-16T10:28:21;99166.63;;;15.28;55.46
77587;BME280;66744;49.716;17.158;2023-04-16T10:31:24;99174.13;;;15.64;56.76
77587;BME280;66744;49.716;17.158;2023-04-16T10:34:27;99162.50;;;15.83;56.25
77587;BME280;66744;49.716;17.158;2023-04-16T10:37:30;99162.72;;;16.03;56.00
77587;BME280;66744;49.716;17.158;2023-04-16T10:40:31;99162.19;;;16.23;56.06
77587;BME280;66744;49.716;17.158;2023-04-16T10:43:44;99164.56;;;16.39;53.12
77587;BME280;66744;49.716;17.158;2023-04-16T10:46:47;99163.09;;;16.53;56.05
77587;BME280;66744;49.716;17.158;2023-04-16T10:49:52;99164.09;;;16.88;52.46
77587;BME280;66744;49.716;17.158;2023-04-16T10:53:22;99166.19;;;17.17;50.93
77587;BME280;66744;49.716;17.158;2023-04-16T10:56:25;99164.75;;;17.21;53.86
77587;BME280;66744;49.716;17.158;2023-04-16T10:59:37;99167.50;;;17.07;53.90
77587;BME280;66744;49.716;17.158;2023-04-16T11:02:39;99163.50;;;17.22;50.97
77587;BME280;66744;49.716;17.158;2023-04-16T11:05:45;99159.50;;;17.23;48.74
77587;BME280;66744;49.716;17.158;2023-04-16T11:08:52;99162.53;;;17.26;48.30
77587;BME280;66744;49.716;17.158;2023-04-16T11:11:53;99166.69;;;17.30;50.02
77587;BME280;66744;49.716;17.158;2023-04-16T11:15:06;99165.25;;;17.49;53.19
77587;BME280;66744;49.716;17.158;2023-04-16T11:18:07;99161.81;;;17.40;48.51
77587;BME280;66744;49.716;17.158;2023-04-16T11:21:10;99170.72;;;17.44;49.34
77587;BME280;66744;49.716;17.158;2023-04-16T11:24:12;99161.59;;;17.43;51.51
77587;BME280;66744;49.716;17.158;2023-04-16T11:27:13;99162.47;;;17.49;51.49
77587;BME280;66744;49.716;17.158;2023-04-16T11:30:16;99159.50;;;17.38;48.58
77587;BME280;66744;49.716;17.158;2023-04-16T11:33:18;99157.00;;;17.26;49.42
77587;BME280;66744;49.716;17.158;2023-04-16T11:36:21;99159.88;;;17.31;47.12
77587;BME280;66744;49.716;17.158;2023-04-16T11:39:23;99161.50;;;17.38;49.75
77587;BME280;66744;49.716;17.158;2023-04-16T11:42:27;99162.72;;;17.60;50.34
77587;BME280;66744;49.716;17.158;2023-04-16T11:45:29;99152.53;;;17.72;47.14
77587;BME280;66744;49.716;17.158;2023-04-16T11:48:50;99167.47;;;17.89;49.24
77587;BME280;66744;49.716;17.158;2023-04-16T11:51:55;99165.38;;;17.84;49.23
77587;BME280;66744;49.716;17.158;2023-04-16T11:55:03;99160.69;;;17.75;44.05
77587;BME280;66744;49.716;17.158;2023-04-16T11:58:17;99153.31;;;17.72;45.77
77587;BME280;66744;49.716;17.158;2023-04-16T12:01:20;99154.75;;;17.68;46.29
77587;BME280;66744;49.716;17.158;2023-04-16T12:04:23;99154.13;;;17.49;45.55
77587;BME280;66744;49.716;17.158;2023-04-16T12:07:24;99157.88;;;17.46;48.85
77587;BME280;66744;49.716;17.158;2023-04-16T12:10:27;99151.50;;;17.55;49.80
77587;BME280;66744;49.716;17.158;2023-04-16T12:13:28;99154.56;;;17.57;48.53
77587;BME280;66744;49.716;17.158;2023-04-16T12:16:30;99153.78;;;17.56;47.16
77587;BME280;66744;49.716;17.158;2023-04-16T12:19:31;99153.78;;;17.71;48.45
77587;BME280;66744;49.716;17.158;2023-04-16T12:22:37;99150.28;;;17.91;48.71
77587;BME280;66744;49.716;17.158;2023-04-16T12:25:41;99153.38;;;17.93;45.73
77587;BME280;66744;49.716;17.158;2023-04-16T12:28:45;99149.91;;;17.98;47.21
77587;BME280;66744;49.716;17.158;2023-04-16T12:31:49;99143.97;;;18.05;47.97
77587;BME280;66744;49.716;17.158;2023-04-16T12:34:51;99151.97;;;18.32;47.59
77587;BME280;66744;49.716;17.158;2023-04-16T12:37:53;99146.72;;;18.54;46.21
77587;BME280;66744;49.716;17.158;2023-04-16T12:40:54;99144.75;;;18.60;47.18
77587;BME280;66744;49.716;17.158;2023-04-16T12:44:10;99147.06;;;18.27;44.60
77587;BME280;66744;49.716;17.158;2023-04-16T12:47:12;99148.00;;;18.04;45.20
77587;BME280;66744;49.716;17.158;2023-04-16T12:50:13;99137.91;;;18.06;45.24
77587;BME280;66744;49.716;17.158;2023-04-16T12:53:14;99134.63;;;18.22;43.80
77587;BME280;66744;49.716;17.158;2023-04-16T12:56:16;99131.22;;;18.33;44.55
77587;BME280;66744;49.716;17.158;2023-04-16T12:59:17;99135.22;;;18.12;44.18
77587;BME280;66744;49.716;17.158;2023-04-16T13:02:18;99139.94;;;17.91;44.33
77587;BME280;66744;49.716;17.158;2023-04-16T13:05:19;99137.19;;;17.76;48.60
77587;BME280;66744;49.716;17.158;2023-04-16T13:08:21;99140.47;;;17.46;47.08
77587;BME280;66744;49.716;17.158;2023-04-16T13:11:22;99142.72;;;17.18;49.40
77587;BME280;66744;49.716;17.158;2023-04-16T13:14:23;99135.50;;;16.97;49.70
77587;BME280;66744;49.716;17.158;2023-04-16T13:17:26;99144.66;;;16.74;49.48
77587;BME280;66744;49.716;17.158;2023-04-16T13:20:27;99139.84;;;16.50;50.49
77587;BME280;66744;49.716;17.158;2023-04-16T13:23:28;99145.75;;;16.43;52.97
77587;BME280;66744;49.716;17.158;2023-04-16T13:26:30;99142.69;;;16.41;50.18
77587;BME280;66744;49.716;17.158;2023-04-16T13:29:31;99137.66;;;16.31;53.30
77587;BME280;66744;49.716;17.158;2023-04-16T13:32:32;99154.31;;;16.22;53.67
77587;BME280;66744;49.716;17.158;2023-04-16T13:35:37;99145.34;;;16.03;52.28
77587;BME280;66744;49.716;17.158;2023-04-16T13:38:39;99139.06;;;15.93;53.65
77587;BME280;66744;49.716;17.158;2023-04-16T13:41:43;99136.06;;;15.82;54.59
77587;BME280;66744;49.716;17.158;2023-04-16T13:44:45;99138.53;;;15.71;53.44
77587;BME280;66744;49.716;17.158;2023-04-16T13:47:48;99151.34;;;15.60;54.40
77587;BME280;66744;49.716;17.158;2023-04-16T13:50:50;99144.88;;;15.44;54.93
77587;BME280;66744;49.716;17.158;2023-04-16T13:53:52;99145.69;;;15.36;57.44
77587;BME280;66744;49.716;17.158;2023-04-16T13:56:54;99142.47;;;15.28;58.39
77587;BME280;66744;49.716;17.158;2023-04-16T13:59:56;99145.41;;;15.25;55.66
77587;BME280;66744;49.716;17.158;2023-04-16T14:02:57;99143.41;;;15.25;57.55
77587;BME280;66744;49.716;17.158;2023-04-16T14:05:58;99137.88;;;15.25;57.23
77587;BME280;66744;49.716;17.158;2023-04-16T14:09:00;99146.31;;;15.31;59.82
77587;BME280;66744;49.716;17.158;2023-04-16T14:12:01;99137.38;;;15.36;59.49
77587;BME280;66744;49.716;17.158;2023-04-16T14:15:06;99141.84;;;15.33;55.80
77587;BME280;66744;49.716;17.158;2023-04-16T14:18:09;99135.25;;;15.22;57.57
77587;BME280;66744;49.716;17.158;2023-04-16T14:21:11;99138.19;;;15.09;56.32
77587;BME280;66744;49.716;17.158;2023-04-16T14:24:13;99139.59;;;15.05;56.31
77587;BME280;66744;49.716;17.158;2023-04-16T14:27:14;99140.03;;;15.03;56.39
77587;BME280;66744;49.716;17.158;2023-04-16T14:30:16;99145.25;;;15.01;57.17
77587;BME280;66744;49.716;17.158;2023-04-16T14:33:18;99131.28;;;15.05;57.01
77587;BME280;66744;49.716;17.158;2023-04-16T14:36:19;99136.50;;;15.02;58.01
77587;BME280;66744;49.716;17.158;2023-04-16T14:39:20;99134.34;;;15.16;58.48
77587;BME280;66744;49.716;17.158;2023-04-16T14:42:23;99138.00;;;15.31;56.19
77587;BME280;66744;49.716;17.158;2023-04-16T14:45:24;99131.03;;;15.44;58.68
77587;BME280;66744;49.716;17.158;2023-04-16T14:48:28;99137.53;;;15.50;57.34
77587;BME280;66744;49.716;17.158;2023-04-16T14:51:32;99139.34;;;15.53;55.15
77587;BME280;66744;49.716;17.158;2023-04-16T14:54:33;99135.22;;;15.58;55.83
77587;BME280;66744;49.716;17.158;2023-04-16T14:57:35;99133.53;;;15.51;56.12
77587;BME280;66744;49.716;17.158;2023-04-16T15:00:36;99135.34;;;15.45;54.21
77587;BME280;66744;49.716;17.158;2023-04-16T15:03:37;99135.06;;;15.43;54.37
77587;BME280;66744;49.716;17.158;2023-04-16T15:06:38;99136.91;;;15.55;54.62
77587;BME280;66744;49.716;17.158;2023-04-16T15:09:40;99137.53;;;15.50;56.59
77587;BME280;66744;49.716;17.158;2023-04-16T15:12:41;99139.53;;;15.41;56.22
77587;BME280;66744;49.716;17.158;2023-04-16T15:15:43;99137.50;;;15.41;54.40
77587;BME280;66744;49.716;17.158;2023-04-16T15:19:11;99137.22;;;15.39;55.40
77587;BME280;66744;49.716;17.158;2023-04-16T15:22:14;99137.06;;;15.43;53.34
77587;BME280;66744;49.716;17.158;2023-04-16T15:25:15;99144.44;;;15.55;55.27
77587;BME280;66744;49.716;17.158;2023-04-16T15:28:17;99142.75;;;15.57;55.55
77587;BME280;66744;49.716;17.158;2023-04-16T15:31:18;99141.28;;;15.80;51.90
77587;BME280;66744;49.716;17.158;2023-04-16T15:34:20;99138.09;;;16.05;51.92
77587;BME280;66744;49.716;17.158;2023-04-16T15:37:22;99132.41;;;16.33;50.49
77587;BME280;66744;49.716;17.158;2023-04-16T15:40:25;99136.59;;;16.52;48.13
77587;BME280;66744;49.716;17.158;2023-04-16T15:43:26;99137.03;;;16.59;48.91
77587;BME280;66744;49.716;17.158;2023-04-16T15:46:29;99138.97;;;16.68;51.16
77587;BME280;66744;49.716;17.158;2023-04-16T15:49:33;99139.94;;;16.65;48.01
77587;BME280;66744;49.716;17.158;2023-04-16T15:52:35;99140.91;;;16.53;47.61
77587;BME280;66744;49.716;17.158;2023-04-16T15:55:36;99143.91;;;16.40;50.31
77587;BME280;66744;49.716;17.158;2023-04-16T15:58:37;99135.94;;;16.33;49.79
77587;BME280;66744;49.716;17.158;2023-04-16T16:01:40;99143.69;;;16.29;48.80